Time;durP1;ratioP1;P1;durP2;ratioP2;P2;SDS_P1;SDS_P2;PMS_P1;PMS_P2;Temp;Humidity;BMP_temperature;BMP_pressure;BME280_temperature;BME280_humidity;BME280_pressure;Samples;Min_cycle;Max_cycle;Signal;HPM_P1;HPM_P2
2021/04/15 00:01:36;;;;;;;7.03;2.88;;;2.60;99.90;;;;;;5112950;28;20019;-77
2021/04/15 00:04:07;;;;;;;7.82;3.08;;;2.60;99.90;;;;;;5113144;28;20030;-77
2021/04/15 00:06:32;;;;;;;6.55;3.03;;;2.60;99.90;;;;;;5111897;28;20043;-76
2021/04/15 00:09:01;;;;;;;6.20;2.65;;;2.60;99.90;;;;;;5112834;28;20047;-76
2021/04/15 00:11:31;;;;;;;7.10;3.22;;;2.50;99.90;;;;;;5098426;28;20077;-76
2021/04/15 00:13:58;;;;;;;4.93;2.83;;;2.60;99.90;;;;;;5112322;28;20417;-76
2021/04/15 00:16:26;;;;;;;6.18;3.35;;;2.60;99.90;;;;;;5112662;28;20112;-77
2021/04/15 00:18:51;;;;;;;5.20;2.85;;;2.50;99.90;;;;;;5113572;28;20121;-77
2021/04/15 00:21:18;;;;;;;4.88;2.80;;;2.50;99.90;;;;;;5112432;28;20055;-76
2021/04/15 00:23:44;;;;;;;6.05;2.63;;;2.50;99.90;;;;;;5113412;28;20024;-77
2021/04/15 00:26:11;;;;;;;9.63;3.10;;;2.50;99.90;;;;;;5112781;28;20027;-76
2021/04/15 00:28:40;;;;;;;9.23;3.08;;;2.50;99.90;;;;;;5111984;28;20146;-77
2021/04/15 00:31:07;;;;;;;6.00;3.45;;;2.40;99.90;;;;;;5112962;28;20034;-77
2021/04/15 00:33:33;;;;;;;6.65;3.75;;;2.50;99.90;;;;;;5112978;28;20024;-75
2021/04/15 00:35:59;;;;;;;13.10;3.85;;;2.50;99.90;;;;;;5112290;28;20027;-75
2021/04/15 00:38:26;;;;;;;8.38;4.00;;;2.60;99.90;;;;;;5112488;28;20027;-74
2021/04/15 00:40:54;;;;;;;6.57;3.95;;;2.60;99.90;;;;;;5112656;28;20028;-77
2021/04/15 00:43:22;;;;;;;9.00;3.45;;;2.70;99.90;;;;;;5111942;28;20072;-75
2021/04/15 00:45:48;;;;;;;6.28;3.75;;;2.80;99.90;;;;;;5112499;28;20105;-77
2021/04/15 00:48:33;;;;;;;7.32;4.05;;;2.80;99.90;;;;;;5112025;28;20542;-76
2021/04/15 00:51:01;;;;;;;11.15;3.67;;;2.80;99.90;;;;;;5101223;28;20039;-76
2021/04/15 00:53:32;;;;;;;8.98;4.13;;;2.90;99.90;;;;;;5111385;28;20098;-77
2021/04/15 00:55:58;;;;;;;8.02;3.88;;;2.90;99.90;;;;;;5099202;28;20065;-77
2021/04/15 00:58:26;;;;;;;7.55;3.97;;;2.90;99.90;;;;;;5112284;28;20034;-77
2021/04/15 01:00:52;;;;;;;9.20;4.80;;;2.90;99.90;;;;;;5112572;28;20024;-77
2021/04/15 01:03:18;;;;;;;7.15;3.45;;;2.80;99.90;;;;;;5111605;28;20019;-76
2021/04/15 01:05:46;;;;;;;8.90;4.40;;;2.80;99.90;;;;;;5112312;28;20032;-76
2021/04/15 01:08:12;;;;;;;12.27;4.57;;;2.70;99.90;;;;;;5112471;28;20076;-76
2021/04/15 01:10:42;;;;;;;6.47;3.92;;;2.70;99.90;;;;;;5099174;28;20046;-75
2021/04/15 01:13:31;;;;;;;5.47;3.78;;;2.60;99.90;;;;;;5111488;28;20020;-75
2021/04/15 01:16:16;;;;;;;9.07;4.05;;;2.60;99.90;;;;;;5112511;28;20034;-74
2021/04/15 01:18:50;;;;;;;8.77;3.70;;;2.50;99.90;;;;;;5112138;28;20055;-76
2021/04/15 01:21:34;;;;;;;7.65;3.80;;;2.50;99.90;;;;;;5112439;28;20040;-76
2021/04/15 01:24:02;;;;;;;9.00;5.00;;;2.40;99.90;;;;;;5111404;28;20494;-76
2021/04/15 01:27:04;;;;;;;8.05;4.30;;;2.50;99.90;;;;;;5111733;28;20055;-76
2021/04/15 01:29:47;;;;;;;9.27;5.93;;;2.50;99.90;;;;;;5112341;28;20019;-77
2021/04/15 01:32:32;;;;;;;8.25;4.65;;;2.50;99.90;;;;;;5099889;28;20024;-75
2021/04/15 01:35:32;;;;;;;7.88;4.35;;;2.50;99.90;;;;;;5112631;28;20047;-75
2021/04/15 01:38:20;;;;;;;9.25;5.00;;;2.50;99.90;;;;;;5068843;28;20040;-76
2021/04/15 01:41:02;;;;;;;10.88;5.18;;;2.40;99.90;;;;;;5100726;28;20032;-75
2021/04/15 01:43:42;;;;;;;9.18;4.28;;;2.40;99.90;;;;;;5111928;28;20031;-75
2021/04/15 01:46:08;;;;;;;8.93;4.07;;;2.30;99.90;;;;;;5100475;28;20274;-76
2021/04/15 01:48:50;;;;;;;5.25;4.13;;;2.30;99.90;;;;;;5108512;28;20450;-74
2021/04/15 01:51:21;;;;;;;8.52;4.30;;;2.30;99.90;;;;;;5111500;28;20028;-77
2021/04/15 01:53:56;;;;;;;6.20;3.53;;;2.20;99.90;;;;;;5114548;28;20494;-77
2021/04/15 01:56:32;;;;;;;6.55;3.92;;;2.20;99.90;;;;;;5115220;28;20031;-77
2021/04/15 01:59:04;;;;;;;10.07;5.72;;;2.20;99.90;;;;;;5115425;28;20023;-77
2021/04/15 02:01:35;;;;;;;8.30;5.20;;;2.20;99.90;;;;;;5115541;27;20417;-74
2021/04/15 02:04:06;;;;;;;6.80;4.43;;;2.10;99.90;;;;;;5115697;28;20052;-77
2021/04/15 02:06:35;;;;;;;7.40;4.13;;;2.10;99.90;;;;;;5114608;28;20035;-76
2021/04/15 02:09:05;;;;;;;13.07;4.50;;;2.10;99.90;;;;;;5115247;28;20051;-75
2021/04/15 02:11:57;;;;;;;5.35;4.05;;;2.10;99.90;;;;;;5100827;28;20032;-75
2021/04/15 02:14:29;;;;;;;5.57;4.15;;;2.10;99.90;;;;;;5114497;28;20035;-76
2021/04/15 02:16:57;;;;;;;12.32;4.35;;;2.00;99.90;;;;;;5115538;28;20088;-76
2021/04/15 02:19:30;;;;;;;6.50;3.63;;;2.00;99.90;;;;;;5114198;28;20110;-76
2021/04/15 02:22:40;;;;;;;5.82;3.92;;;2.00;99.90;;;;;;5115495;28;20019;-76
2021/04/15 02:25:14;;;;;;;3.40;3.10;;;2.00;99.90;;;;;;5032301;28;20484;-75
2021/04/15 02:28:06;;;;;;;7.45;4.13;;;2.00;99.90;;;;;;5098284;28;20035;-75
2021/04/15 02:30:42;;;;;;;13.45;4.35;;;1.90;99.90;;;;;;5115235;28;20364;-75
2021/04/15 02:33:16;;;;;;;8.63;4.00;;;2.00;99.90;;;;;;5115333;28;20107;-76
2021/04/15 02:35:48;;;;;;;7.82;4.22;;;1.90;99.90;;;;;;5114653;28;20613;-76
2021/04/15 02:38:19;;;;;;;4.75;3.53;;;1.90;99.90;;;;;;5107871;28;20011;-75
2021/04/15 02:40:48;;;;;;;;;;;1.80;99.90;;;;;;5114903;28;20099;-75
2021/04/15 02:43:21;;;;;;;19.02;3.05;;;1.80;99.90;;;;;;5110037;28;20409;-76
2021/04/15 02:45:51;;;;;;;9.80;3.42;;;1.60;99.90;;;;;;5112205;27;20051;-75
2021/04/15 02:48:29;;;;;;;8.77;3.47;;;1.60;99.90;;;;;;5134424;27;20059;-76
2021/04/15 02:51:02;;;;;;;4.55;3.55;;;1.50;99.90;;;;;;5135663;27;20115;-76
2021/04/15 02:53:50;;;;;;;8.38;4.18;;;1.50;99.90;;;;;;5135348;27;20449;-76
2021/04/15 02:56:38;;;;;;;6.97;3.90;;;1.40;99.90;;;;;;5111799;27;20032;-77
2021/04/15 02:59:14;;;;;;;4.38;3.97;;;1.40;99.90;;;;;;5131640;27;20076;-77
2021/04/15 03:01:44;;;;;;;5.40;4.13;;;1.40;99.90;;;;;;5134205;27;20102;-77
2021/04/15 03:04:18;;;;;;;7.03;5.38;;;1.40;99.90;;;;;;5134816;27;20478;-77
2021/04/15 03:06:46;;;;;;;5.72;4.10;;;1.40;99.90;;;;;;5135443;27;20097;-77
2021/04/15 03:09:13;;;;;;;5.68;4.38;;;1.40;99.90;;;;;;5134003;27;20035;-76
2021/04/15 03:11:47;;;;;;;5.32;4.28;;;1.30;99.90;;;;;;5134951;27;20085;-77
2021/04/15 03:14:18;;;;;;;5.65;4.35;;;1.40;99.90;;;;;;5121045;27;20028;-77
2021/04/15 03:16:47;;;;;;;5.65;4.32;;;1.40;99.90;;;;;;5134206;27;20027;-76
2021/04/15 03:19:34;;;;;;;6.45;4.05;;;1.50;99.90;;;;;;5134545;27;20034;-77
2021/04/15 03:22:22;;;;;;;5.30;4.47;;;1.50;99.90;;;;;;5123083;27;20027;-76
2021/04/15 03:24:51;;;;;;;6.65;4.13;;;1.50;99.90;;;;;;5133829;27;20019;-77
2021/04/15 03:27:43;;;;;;;8.55;3.90;;;1.50;99.90;;;;;;5134464;27;20043;-76
2021/04/15 03:30:20;;;;;;;4.88;3.65;;;1.50;99.90;;;;;;5134201;27;20027;-76
2021/04/15 03:33:06;;;;;;;7.07;3.65;;;1.40;99.90;;;;;;5134321;27;20582;-76
2021/04/15 03:35:43;;;;;;;7.35;4.25;;;1.40;99.90;;;;;;5121817;27;20088;-76
2021/04/15 03:38:18;;;;;;;12.43;4.25;;;1.50;99.90;;;;;;5133679;27;20023;-77
2021/04/15 03:40:47;;;;;;;6.68;3.90;;;1.40;99.90;;;;;;5134619;27;20034;-76
2021/04/15 03:43:19;;;;;;;6.63;4.00;;;1.50;99.90;;;;;;5134120;27;20023;-77
2021/04/15 03:45:49;;;;;;;5.85;4.00;;;1.50;99.90;;;;;;5121372;27;20135;-76
2021/04/15 03:48:22;;;;;;;7.45;4.47;;;1.50;99.90;;;;;;5107324;28;20036;-75
2021/04/15 03:51:11;;;;;;;6.28;3.90;;;1.50;99.90;;;;;;5113152;28;20023;-75
2021/04/15 03:53:42;;;;;;;6.22;3.83;;;1.40;99.90;;;;;;5113613;28;20106;-76
2021/04/15 03:56:28;;;;;;;8.30;4.05;;;1.40;99.90;;;;;;5113828;28;20020;-76
2021/04/15 03:58:59;;;;;;;13.05;4.47;;;1.40;99.90;;;;;;5113048;28;20055;-77
2021/04/15 04:01:30;;;;;;;8.95;4.20;;;1.40;99.90;;;;;;5112821;28;20030;-76
2021/04/15 04:04:24;;;;;;;10.15;4.57;;;1.40;99.90;;;;;;5113371;28;20508;-76
2021/04/15 04:06:51;;;;;;;9.88;4.25;;;1.40;99.90;;;;;;5112702;28;20039;-76
2021/04/15 04:09:25;;;;;;;6.60;4.28;;;1.50;99.90;;;;;;5112901;28;20016;-76
2021/04/15 04:11:52;;;;;;;8.07;4.05;;;1.50;99.90;;;;;;5113028;28;20421;-76
2021/04/15 04:14:23;;;;;;;12.52;4.65;;;1.50;99.90;;;;;;5112629;28;20430;-75
2021/04/15 04:17:01;;;;;;;9.93;4.25;;;1.50;99.90;;;;;;5112797;28;20103;-75
2021/04/15 04:19:36;;;;;;;17.85;4.93;;;1.50;99.90;;;;;;5111981;28;20511;-77
2021/04/15 04:22:29;;;;;;;10.80;4.30;;;1.50;99.90;;;;;;5112990;28;20472;-76
2021/04/15 04:25:09;;;;;;;9.23;4.70;;;1.40;99.90;;;;;;5100765;28;20111;-76
2021/04/15 04:27:37;;;;;;;10.23;4.53;;;1.40;99.90;;;;;;5112414;28;20501;-77
2021/04/15 04:30:29;;;;;;;7.85;4.43;;;1.40;99.90;;;;;;5113724;28;20026;-75
2021/04/15 04:33:02;;;;;;;6.30;4.22;;;1.40;99.90;;;;;;5112933;28;20106;-77
2021/04/15 04:35:31;;;;;;;13.48;5.85;;;1.30;99.90;;;;;;5112445;28;20409;-76
2021/04/15 04:38:01;;;;;;;9.27;4.60;;;1.30;99.90;;;;;;5112518;28;20594;-74
2021/04/15 04:40:53;;;;;;;;;;;1.30;99.90;;;;;;5112007;28;20020;-76
2021/04/15 04:43:42;;;;;;;7.85;4.50;;;1.30;99.90;;;;;;5094588;28;19908;-76
2021/04/15 04:46:17;;;;;;;27.85;8.30;;;1.30;99.90;;;;;;5102221;28;20128;-76
2021/04/15 04:48:56;;;;;;;8.05;5.28;;;1.30;99.90;;;;;;5109586;28;20431;-76
2021/04/15 04:51:43;;;;;;;9.18;5.65;;;1.30;99.90;;;;;;5112252;28;20031;-76
2021/04/15 04:54:09;;;;;;;8.68;4.70;;;1.30;99.90;;;;;;5111740;28;20055;-76
2021/04/15 04:56:46;;;;;;;13.10;5.57;;;1.30;99.90;;;;;;5112237;28;20066;-76
2021/04/15 04:59:20;;;;;;;8.35;5.18;;;1.40;99.90;;;;;;5112513;28;20020;-77
2021/04/15 05:01:46;;;;;;;7.15;4.90;;;1.30;99.90;;;;;;5111741;28;20536;-77
2021/04/15 05:04:14;;;;;;;7.35;4.68;;;1.40;99.90;;;;;;5112317;28;20015;-76
2021/04/15 05:06:42;;;;;;;9.20;5.40;;;1.40;99.90;;;;;;5112623;28;20046;-76
2021/04/15 05:09:22;;;;;;;8.25;4.65;;;1.40;99.90;;;;;;5111570;28;20023;-78
2021/04/15 05:11:50;;;;;;;13.45;5.38;;;1.40;99.90;;;;;;5112594;28;20059;-77
2021/04/15 05:14:19;;;;;;;8.23;4.95;;;1.40;99.90;;;;;;5112331;28;20414;-77
2021/04/15 05:16:54;;;;;;;7.55;4.75;;;1.60;99.90;;;;;;5111821;28;20023;-75
2021/04/15 05:19:20;;;;;;;12.68;5.80;;;1.40;99.90;;;;;;5111791;28;20333;-76
2021/04/15 05:21:48;;;;;;;8.05;4.93;;;1.40;99.90;;;;;;5112242;28;20077;-76
2021/04/15 05:24:25;;;;;;;8.05;4.50;;;1.40;99.90;;;;;;5110841;28;20425;-75
2021/04/15 05:26:52;;;;;;;10.30;5.07;;;1.50;99.90;;;;;;5112648;28;20044;-76
2021/04/15 05:29:23;;;;;;;5.10;4.60;;;1.40;99.90;;;;;;5115414;28;20024;-76
2021/04/15 05:31:53;;;;;;;7.85;4.30;;;1.50;99.90;;;;;;5116703;28;20028;-75
2021/04/15 05:34:53;;;;;;;8.80;5.53;;;1.50;99.90;;;;;;5114955;28;20113;-77
2021/04/15 05:37:23;;;;;;;4.95;4.00;;;1.50;99.90;;;;;;5089843;28;20028;-75
2021/04/15 05:39:51;;;;;;;8.37;4.87;;;1.50;99.90;;;;;;5104456;27;20032;-75
2021/04/15 05:42:33;;;;;;;7.63;4.65;;;1.50;99.90;;;;;;5097255;28;20027;-75
2021/04/15 05:45:28;;;;;;;7.65;5.18;;;1.50;99.90;;;;;;5099556;27;20484;-75
2021/04/15 05:48:01;;;;;;;9.93;5.07;;;1.60;99.90;;;;;;5072380;28;20120;-76
2021/04/15 05:50:41;;;;;;;12.98;7.50;;;1.60;99.90;;;;;;5073387;28;20028;-76
2021/04/15 05:53:39;;;;;;;11.38;5.45;;;1.70;99.90;;;;;;5076823;28;20025;-75
2021/04/15 05:56:24;;;;;;;11.15;5.28;;;1.80;99.90;;;;;;5084054;28;20388;-75
2021/04/15 05:58:58;;;;;;;7.82;4.93;;;1.90;99.90;;;;;;5073102;28;20032;-75
2021/04/15 06:01:36;;;;;;;8.35;5.30;;;1.90;99.90;;;;;;5073781;28;20021;-75
2021/04/15 06:04:16;;;;;;;11.38;4.63;;;2.00;99.90;;;;;;5086575;28;20020;-76
2021/04/15 06:06:43;;;;;;;10.98;5.20;;;2.00;99.90;;;;;;5080250;28;20137;-76
2021/04/15 06:09:10;;;;;;;4.97;4.35;;;2.10;99.90;;;;;;5087165;28;20025;-75
2021/04/15 06:11:53;;;;;;;5.18;4.57;;;2.20;99.90;;;;;;5088821;28;20034;-75
2021/04/15 06:14:26;;;;;;;5.55;5.03;;;2.30;99.90;;;;;;5089324;28;20045;-75
2021/04/15 06:17:34;;;;;;;9.35;5.05;;;2.40;99.90;;;;;;5093096;28;20490;-75
2021/04/15 06:20:05;;;;;;;13.43;4.72;;;2.40;99.90;;;;;;5092534;28;20069;-75
2021/04/15 06:22:33;;;;;;;6.13;4.72;;;2.50;99.90;;;;;;5093501;28;20020;-76
2021/04/15 06:25:29;;;;;;;10.75;4.53;;;2.60;99.90;;;;;;5091297;28;20039;-75
2021/04/15 06:28:19;;;;;;;12.27;4.28;;;2.70;99.90;;;;;;5088325;28;20032;-76
2021/04/15 06:30:59;;;;;;;11.10;4.82;;;2.90;99.90;;;;;;5091246;28;20495;-75
2021/04/15 06:33:25;;;;;;;;;;;3.00;99.90;;;;;;5089332;28;20067;-75
2021/04/15 06:35:54;;;;;;;10.30;4.43;;;3.10;99.90;;;;;;5087630;28;19904;-75
2021/04/15 06:38:55;;;;;;;9.35;4.38;;;3.10;99.90;;;;;;5092631;28;20012;-76
2021/04/15 06:41:52;;;;;;;8.07;4.00;;;3.30;99.90;;;;;;5090050;28;20103;-83
2021/04/15 06:44:44;;;;;;;6.93;3.70;;;3.30;99.90;;;;;;5092936;28;20024;-82
2021/04/15 06:47:30;;;;;;;7.30;5.30;;;3.40;99.90;;;;;;5119071;27;20047;-83
2021/04/15 06:50:32;;;;;;;12.40;3.67;;;3.50;99.90;;;;;;5128393;27;20023;-83
2021/04/15 06:53:20;;;;;;;7.28;3.75;;;3.60;99.90;;;;;;5112868;27;20083;-81
2021/04/15 06:56:18;;;;;;;9.10;4.45;;;3.70;99.90;;;;;;5117065;27;20020;-81
2021/04/15 06:59:10;;;;;;;9.40;4.07;;;3.80;99.90;;;;;;5135900;27;20062;-81
2021/04/15 07:02:05;;;;;;;11.82;4.68;;;3.90;99.90;;;;;;5087264;27;20027;-81
2021/04/15 07:04:55;;;;;;;9.45;4.07;;;4.00;99.90;;;;;;5134116;27;20027;-79
2021/04/15 07:07:34;;;;;;;7.15;3.97;;;4.00;99.90;;;;;;5125233;27;20111;-82
2021/04/15 07:10:28;;;;;;;9.25;4.25;;;4.20;99.90;;;;;;5134358;27;20015;-82
2021/04/15 07:13:24;;;;;;;8.77;4.63;;;4.30;99.90;;;;;;5130138;27;20019;-81
2021/04/15 07:16:07;;;;;;;10.80;3.95;;;4.50;99.90;;;;;;5126738;27;20050;-81
2021/04/15 07:18:52;;;;;;;13.48;5.90;;;4.60;99.90;;;;;;5126965;27;20075;-82
2021/04/15 07:21:45;;;;;;;8.95;3.35;;;4.70;99.90;;;;;;5122668;27;20037;-79
2021/04/15 07:24:30;;;;;;;8.05;3.50;;;4.90;99.90;;;;;;5133337;27;20023;-82
2021/04/15 07:27:40;;;;;;;4.55;3.28;;;5.10;99.90;;;;;;5114565;28;20024;-82
2021/04/15 07:30:43;;;;;;;6.88;3.65;;;5.30;99.90;;;;;;5120360;27;20015;-82
2021/04/15 07:33:24;;;;;;;6.10;3.35;;;5.40;99.90;;;;;;5119751;27;20035;-82
2021/04/15 07:36:15;;;;;;;7.10;2.85;;;5.40;99.90;;;;;;5114405;28;20099;-81
2021/04/15 07:39:14;;;;;;;12.82;4.10;;;5.50;99.90;;;;;;5125146;27;20024;-80
2021/04/15 07:42:05;;;;;;;9.40;3.60;;;5.50;99.90;;;;;;5123189;27;20099;-79
2021/04/15 07:45:13;;;;;;;11.75;3.90;;;5.60;99.90;;;;;;5115585;27;20030;-81
2021/04/15 07:48:13;;;;;;;9.77;4.05;;;5.60;99.90;;;;;;5093395;27;20134;-82
2021/04/15 07:50:57;;;;;;;6.32;3.20;;;5.50;99.90;;;;;;5132778;27;20095;-79
2021/04/15 07:53:41;;;;;;;6.97;3.67;;;5.60;99.90;;;;;;5134853;27;20106;-80
2021/04/15 07:56:37;;;;;;;7.10;2.45;;;5.70;99.90;;;;;;5121097;27;20473;-76
2021/04/15 07:59:26;;;;;;;7.43;2.45;;;5.80;99.90;;;;;;5124154;27;20531;-80
2021/04/15 08:02:36;;;;;;;9.77;2.70;;;6.00;99.90;;;;;;5132015;27;20429;-80
2021/04/15 08:05:17;;;;;;;6.32;1.65;;;6.20;99.90;;;;;;5130184;27;20493;-83
2021/04/15 08:08:05;;;;;;;6.35;1.58;;;6.40;99.90;;;;;;5125934;27;20106;-79
2021/04/15 08:11:12;;;;;;;7.72;1.67;;;6.40;99.90;;;;;;5131567;27;20033;-78
2021/04/15 08:14:10;;;;;;;5.78;1.70;;;6.50;99.90;;;;;;5123808;27;20029;-77
2021/04/15 08:17:02;;;;;;;8.43;2.42;;;6.70;99.90;;;;;;5130196;27;20046;-81
2021/04/15 08:19:46;;;;;;;5.70;2.00;;;6.60;99.90;;;;;;5124166;27;20024;-81
2021/04/15 08:22:34;;;;;;;9.35;1.63;;;6.50;99.90;;;;;;5125733;27;20015;-80
2021/04/15 08:25:22;;;;;;;5.47;1.52;;;6.50;99.90;;;;;;5128396;27;20578;-81
2021/04/15 08:28:06;;;;;;;4.53;1.65;;;6.50;99.90;;;;;;5116916;27;20027;-81
2021/04/15 08:30:38;;;;;;;7.40;1.52;;;6.70;99.90;;;;;;5126950;27;20308;-82
2021/04/15 08:33:17;;;;;;;6.88;1.60;;;6.80;99.90;;;;;;5126678;27;20034;-80
2021/04/15 08:36:07;;;;;;;2.75;1.50;;;7.00;99.90;;;;;;5125271;27;20031;-81
2021/04/15 08:38:57;;;;;;;2.75;1.88;;;7.20;99.90;;;;;;5125053;27;20027;-80
2021/04/15 08:41:45;;;;;;;5.60;1.50;;;7.40;99.90;;;;;;5129862;27;20019;-81
2021/04/15 08:44:24;;;;;;;6.07;1.70;;;7.30;99.90;;;;;;5128865;27;20027;-80
2021/04/15 08:47:13;;;;;;;5.78;1.85;;;7.40;99.90;;;;;;5121893;27;20043;-82
2021/04/15 08:49:45;;;;;;;4.68;1.58;;;7.50;99.90;;;;;;5128447;27;20028;-82
2021/04/15 08:52:47;;;;;;;4.50;1.67;;;7.70;99.90;;;;;;5133330;28;20490;-82
2021/04/15 08:55:43;;;;;;;2.67;1.27;;;7.90;99.90;;;;;;5130810;27;20065;-80
2021/04/15 08:58:31;;;;;;;2.42;1.73;;;8.10;99.90;;;;;;5128011;28;20080;-80
2021/04/15 09:01:27;;;;;;;2.25;0.88;;;8.30;99.90;;;;;;5122850;28;20018;-78
2021/04/15 09:04:07;;;;;;;3.13;1.30;;;8.30;99.90;;;;;;5127170;27;20050;-78
2021/04/15 09:06:56;;;;;;;2.78;1.23;;;8.40;99.90;;;;;;5127908;27;20074;-80
2021/04/15 09:09:35;;;;;;;6.47;0.75;;;8.50;99.90;;;;;;5128364;27;20058;-77
2021/04/15 09:12:19;;;;;;;1.10;0.75;;;8.60;99.90;;;;;;5131018;27;20027;-75
2021/04/15 09:15:10;;;;;;;1.00;0.75;;;8.60;99.90;;;;;;5127244;27;20035;-77
2021/04/15 09:17:43;;;;;;;1.95;0.73;;;8.60;99.90;;;;;;5132879;27;20023;-69
2021/04/15 09:20:16;;;;;;;1.52;0.90;;;8.30;99.90;;;;;;5130748;27;20023;-81
2021/04/15 09:23:06;;;;;;;2.00;0.82;;;8.20;99.90;;;;;;5124478;27;20036;-78
2021/04/15 09:25:58;;;;;;;1.55;0.90;;;8.10;99.90;;;;;;5130450;27;20031;-80
2021/04/15 09:28:44;;;;;;;0.90;0.70;;;8.10;99.90;;;;;;5122037;27;20023;-80
2021/04/15 09:31:15;;;;;;;1.10;1.00;;;8.20;99.90;;;;;;5124072;27;20020;-79
2021/04/15 09:33:59;;;;;;;3.05;0.98;;;8.30;99.90;;;;;;5124953;27;20600;-77
2021/04/15 09:36:43;;;;;;;1.80;1.20;;;8.50;99.90;;;;;;5130724;27;20466;-80
2021/04/15 09:39:21;;;;;;;2.65;1.13;;;8.60;99.90;;;;;;5124028;27;20129;-79
2021/04/15 09:42:12;;;;;;;1.10;1.10;;;8.80;99.90;;;;;;5124282;27;20023;-78
2021/04/15 09:44:40;;;;;;;;;;;8.90;99.90;;;;;;5120840;27;20032;-78
2021/04/15 09:47:50;;;;;;;3.70;1.20;;;8.90;99.90;;;;;;5121050;27;19923;-78
2021/04/15 09:50:27;;;;;;;3.58;1.58;;;8.90;99.90;;;;;;5104749;27;20028;-79
2021/04/15 09:53:18;;;;;;;1.60;1.42;;;9.00;99.90;;;;;;5109179;27;20020;-78
2021/04/15 09:56:03;;;;;;;1.90;1.60;;;9.30;99.90;;;;;;5101544;28;20086;-79
2021/04/15 09:58:51;;;;;;;2.25;1.70;;;9.20;99.90;;;;;;5107879;28;20028;-79
2021/04/15 10:01:34;;;;;;;1.15;1.00;;;9.10;99.90;;;;;;5109663;27;20065;-79
2021/04/15 10:04:17;;;;;;;1.30;1.10;;;9.10;99.90;;;;;;5108152;27;20020;-80
2021/04/15 10:06:58;;;;;;;1.95;1.40;;;9.40;99.90;;;;;;5108258;27;20067;-78
2021/04/15 10:09:40;;;;;;;1.50;1.40;;;9.30;99.90;;;;;;5104426;28;20119;-79
2021/04/15 10:12:17;;;;;;;4.68;2.30;;;9.30;99.90;;;;;;5107166;27;20031;-80
2021/04/15 10:14:49;;;;;;;1.77;1.45;;;9.30;99.90;;;;;;5111861;27;20026;-79
2021/04/15 10:17:47;;;;;;;1.67;1.40;;;9.10;99.90;;;;;;5111141;27;20031;-79
2021/04/15 10:20:26;;;;;;;1.67;1.58;;;9.20;99.90;;;;;;5090854;27;20084;-78
2021/04/15 10:23:10;;;;;;;3.72;1.42;;;9.20;99.90;;;;;;5118542;27;20136;-78
2021/04/15 10:25:56;;;;;;;2.20;1.40;;;9.10;99.90;;;;;;5116537;27;20028;-79
2021/04/15 10:29:01;;;;;;;1.85;1.30;;;9.30;99.90;;;;;;5112770;27;20020;-79
2021/04/15 10:31:46;;;;;;;3.00;1.83;;;9.40;99.90;;;;;;5099943;28;20457;-79
2021/04/15 10:34:44;;;;;;;1.50;1.40;;;9.60;99.90;;;;;;5125150;27;20106;-80
2021/04/15 10:37:28;;;;;;;3.15;1.42;;;9.70;99.90;;;;;;5109293;28;20488;-79
2021/04/15 10:40:22;;;;;;;2.45;1.90;;;9.70;99.90;;;;;;5107270;27;20024;-77
2021/04/15 10:43:26;;;;;;;2.47;1.70;;;9.80;99.90;;;;;;5099811;27;20027;-79
2021/04/15 10:46:16;;;;;;;1.60;1.50;;;10.00;99.90;;;;;;5089524;28;20040;-80
2021/04/15 10:49:24;;;;;;;2.05;1.67;;;10.10;99.90;;;;;;5124705;27;20035;-81
2021/04/15 10:52:13;;;;;;;1.92;1.80;;;10.10;99.40;;;;;;5124796;27;20028;-78
2021/04/15 10:54:40;;;;;;;3.45;1.60;;;10.10;99.80;;;;;;5079576;27;20034;-79
2021/04/15 10:57:21;;;;;;;1.77;1.48;;;10.10;99.50;;;;;;5136924;27;20031;-78
2021/04/15 10:59:49;;;;;;;2.85;1.60;;;9.90;99.00;;;;;;5137906;27;20102;-79
2021/04/15 11:02:46;;;;;;;1.98;1.20;;;9.80;99.90;;;;;;5127405;27;20076;-79
2021/04/15 11:05:29;;;;;;;1.10;1.10;;;9.80;99.00;;;;;;5130792;27;20034;-79
2021/04/15 11:08:05;;;;;;;1.90;1.25;;;9.90;99.60;;;;;;5123099;27;20487;-80
2021/04/15 11:10:32;;;;;;;1.23;1.13;;;9.90;98.10;;;;;;5124399;27;20110;-80
2021/04/15 11:13:22;;;;;;;2.20;1.60;;;9.90;97.90;;;;;;5123003;27;20023;-79
2021/04/15 11:15:52;;;;;;;1.60;1.23;;;9.90;98.50;;;;;;5125566;27;20034;-81
2021/04/15 11:18:37;;;;;;;2.65;1.83;;;9.90;98.30;;;;;;5127955;27;20379;-79
2021/04/15 11:21:26;;;;;;;4.85;1.40;;;9.80;98.90;;;;;;5122330;27;20423;-80
2021/04/15 11:23:54;;;;;;;1.73;1.10;;;9.80;98.20;;;;;;5126443;27;20027;-81
2021/04/15 11:26:49;;;;;;;4.30;1.73;;;9.80;99.20;;;;;;5129460;27;20533;-80
2021/04/15 11:29:27;;;;;;;4.32;1.23;;;9.60;97.80;;;;;;5106224;27;20083;-79
2021/04/15 11:31:53;;;;;;;2.55;1.40;;;9.60;97.80;;;;;;5126887;27;20402;-79
2021/04/15 11:34:25;;;;;;;2.53;1.20;;;9.70;97.50;;;;;;5131876;27;20030;-80
2021/04/15 11:36:59;;;;;;;2.95;1.20;;;10.00;97.60;;;;;;5131063;27;20089;-80
2021/04/15 11:39:27;;;;;;;2.70;1.38;;;10.00;96.40;;;;;;5128618;27;20043;-80
2021/04/15 11:42:04;;;;;;;2.33;1.52;;;10.00;97.20;;;;;;5128557;27;20024;-80
2021/04/15 11:44:31;;;;;;;2.92;1.50;;;10.00;96.40;;;;;;5126262;27;20038;-80
2021/04/15 11:47:04;;;;;;;1.50;1.40;;;10.00;96.00;;;;;;5125691;27;20071;-80
2021/04/15 11:49:35;;;;;;;1.80;1.45;;;10.10;97.70;;;;;;5117863;27;20035;-81
2021/04/15 11:52:12;;;;;;;2.28;1.40;;;10.20;95.70;;;;;;5129260;27;20020;-81
2021/04/15 11:54:52;;;;;;;4.03;1.40;;;10.20;96.90;;;;;;5127325;27;20057;-81
2021/04/15 11:57:31;;;;;;;1.88;1.60;;;10.30;96.90;;;;;;5119623;27;20463;-81
2021/04/15 11:59:57;;;;;;;1.65;1.25;;;10.40;96.50;;;;;;5130269;27;20046;-81
2021/04/15 12:02:42;;;;;;;2.10;1.90;;;10.60;97.10;;;;;;5118451;27;20019;-80
2021/04/15 12:05:16;;;;;;;1.77;1.67;;;10.80;96.70;;;;;;5115649;27;20073;-82
2021/04/15 12:07:47;;;;;;;1.42;1.30;;;10.90;96.50;;;;;;5112271;27;20035;-82
2021/04/15 12:10:14;;;;;;;1.25;1.13;;;11.00;95.70;;;;;;5109307;27;20019;-81
2021/04/15 12:12:42;;;;;;;0.98;0.90;;;11.00;93.30;;;;;;5108023;27;20030;-82
2021/04/15 12:15:13;;;;;;;1.33;1.20;;;11.20;92.60;;;;;;5111637;28;20089;-81
2021/04/15 12:17:44;;;;;;;1.63;1.52;;;11.10;91.30;;;;;;5108866;28;20062;-82
2021/04/15 12:20:17;;;;;;;4.65;1.58;;;11.30;91.40;;;;;;5109731;27;20483;-83
2021/04/15 12:23:24;;;;;;;1.38;1.27;;;11.40;91.40;;;;;;5104400;27;20024;-82
2021/04/15 12:26:01;;;;;;;1.67;1.40;;;11.50;90.60;;;;;;5109276;27;20030;-81
2021/04/15 12:28:36;;;;;;;1.60;1.42;;;11.60;88.90;;;;;;5117905;27;20517;-81
2021/04/15 12:31:22;;;;;;;1.15;1.05;;;11.60;89.40;;;;;;5105017;28;20028;-75
2021/04/15 12:34:14;;;;;;;1.38;1.20;;;11.60;87.60;;;;;;5111704;27;20034;-80
2021/04/15 12:36:58;;;;;;;1.42;1.08;;;11.50;84.00;;;;;;5122905;27;20020;-82
2021/04/15 12:39:32;;;;;;;1.45;1.17;;;11.50;86.90;;;;;;5115207;27;20478;-80
2021/04/15 12:41:58;;;;;;;1.00;1.00;;;11.70;85.40;;;;;;5114819;28;20015;-80
2021/04/15 12:44:28;;;;;;;2.78;1.13;;;11.90;84.60;;;;;;5117850;27;20596;-80
2021/04/15 12:46:58;;;;;;;1.33;1.23;;;12.00;79.30;;;;;;5131882;27;20043;-80
2021/04/15 12:49:31;;;;;;;1.05;0.98;;;12.10;78.30;;;;;;5132196;27;20047;-80
2021/04/15 12:51:59;;;;;;;1.10;1.00;;;12.20;72.90;;;;;;5133928;28;20135;-81
2021/04/15 12:54:35;;;;;;;1.33;1.10;;;12.40;72.80;;;;;;5127372;28;20080;-79
2021/04/15 12:57:04;;;;;;;1.00;0.80;;;12.60;73.50;;;;;;5133398;28;20027;-81
2021/04/15 12:59:36;;;;;;;1.00;0.90;;;12.70;73.10;;;;;;5133599;27;20360;-79
2021/04/15 13:02:03;;;;;;;2.88;0.80;;;12.70;69.30;;;;;;5134923;28;20130;-81
2021/04/15 13:04:34;;;;;;;1.73;0.98;;;12.50;69.40;;;;;;5129556;28;20465;-80
2021/04/15 13:07:00;;;;;;;3.60;1.27;;;12.50;70.80;;;;;;5129922;28;20035;-80
2021/04/15 13:09:35;;;;;;;1.52;1.00;;;12.40;70.20;;;;;;5131479;28;20023;-81
2021/04/15 13:12:21;;;;;;;1.20;1.10;;;12.50;69.40;;;;;;5134323;28;20055;-80
2021/04/15 13:14:50;;;;;;;1.77;1.00;;;12.50;69.10;;;;;;5135158;28;20378;-81
2021/04/15 13:17:44;;;;;;;1.30;1.20;;;12.70;71.00;;;;;;5132181;28;20192;-80
2021/04/15 13:20:18;;;;;;;2.30;1.38;;;13.00;70.90;;;;;;5133853;28;20030;-80
2021/04/15 13:22:46;;;;;;;3.60;1.10;;;13.10;70.20;;;;;;5130706;28;20148;-80
2021/04/15 13:25:14;;;;;;;1.40;1.00;;;13.10;70.40;;;;;;5131961;28;20027;-80
2021/04/15 13:27:42;;;;;;;1.00;0.70;;;13.20;68.60;;;;;;5130234;27;20043;-81
2021/04/15 13:30:39;;;;;;;1.55;0.95;;;13.40;67.10;;;;;;5133092;27;20019;-80
2021/04/15 13:33:18;;;;;;;0.65;0.65;;;13.50;63.30;;;;;;5128738;28;20050;-75
2021/04/15 13:35:44;;;;;;;1.15;1.05;;;13.60;62.60;;;;;;5135738;28;20024;-81
2021/04/15 13:39:02;;;;;;;0.90;0.90;;;13.60;59.50;;;;;;5145954;28;20015;-81
2021/04/15 13:42:05;;;;;;;1.52;1.25;;;13.70;59.00;;;;;;5123708;27;20046;-81
2021/04/15 13:44:58;;;;;;;1.15;1.00;;;13.70;60.60;;;;;;5066935;28;20017;-80
2021/04/15 13:47:45;;;;;;;1.83;0.93;;;13.80;60.00;;;;;;5134873;28;20063;-82
2021/04/15 13:50:13;;;;;;;1.85;0.90;;;14.00;61.10;;;;;;5113604;27;20030;-83
2021/04/15 13:52:39;;;;;;;4.35;1.50;;;14.10;59.30;;;;;;5126814;27;20027;-83
2021/04/15 13:55:31;;;;;;;1.75;1.33;;;13.70;56.80;;;;;;5122543;27;20076;-82
2021/04/15 13:57:58;;;;;;;1.23;1.20;;;13.50;60.50;;;;;;5116997;27;20106;-83
2021/04/15 14:00:42;;;;;;;2.22;1.60;;;13.00;62.10;;;;;;5116011;27;20543;-83